LXGB/GIB METAR and TAF weather

Enter ICAO airport designator
Station Type Date Time Source
LXGB METAR 2021/09/19 13:50 UTC NOAA

LXGB 191350Z 20009KT CAVOK 27/15 Q1016 NOSIG RMK BLU BLU


Station Type Date Time Source
LXGB Decoded METAR 2021/09/19 13:50 UTC NOAA

Gibraltar, Gibraltar (LXGB) 36-09N 005-21W 0M
Sep 19, 2021 - 09:50 AM EDT / 2021.09.19 1350 UTC
Wind: from the SSW (200 degrees) at 10 MPH (9 KT):0
Visibility: greater than 7 mile(s):0
Temperature: 80 F (27 C)
Dew Point: 59 F (15 C)
Relative Humidity: 47%
Pressure (altimeter): 30.00 in. Hg (1016 hPa)
ob: LXGB 191350Z 20009KT CAVOK 27/15 Q1016 NOSIG RMK BLU BLU
cycle: 14

Station Type Date Time Source
LXGB TAF 2020/12/29 18:09 UTC NOAA

TAF TAF LXGB 290602Z 2818/2923 CNL

Example: see airport list